Atmospheric History
02/08/2018 18:25  to  2/9/2018 18:25
Change End Date:
To complete the export process:
1) Select all of the data below
2) Copy the data to the clipboard
3) Open a word processor such as Notepad
4) Paste the data into the word processor
5) Save the file

Date/Time (MDT), AirTemp, RH, Dewpoint ,AvgWindSpeed, GustWindSpeed, WindDirection, PrecipType, PrecipIntensity, PrecipAccumulation, PrecipRate
02/09/2018 18:23, -3, 76, -8 ,1, 2, W, None, None, ,  
02/09/2018 18:20, -2, 76, -8 ,1, 1, W, None, None, ,  
02/09/2018 18:13, -2, 75, -8 ,1, 1, W, None, None, ,  
02/09/2018 18:05, -2, 74, -8 ,1, 1, W, None, None, ,  
02/09/2018 18:02, -2, 74, -8 ,1, 1, W, None, None, ,  
02/09/2018 17:52, -2, 73, -8 ,0, 1, W, None, None, ,  
02/09/2018 17:50, -2, 73, -8 ,0, 0, W, None, None, ,  
02/09/2018 17:42, -1, 72, -8 ,0, 1, W, None, None, ,  
02/09/2018 17:35, -1, 71, -8 ,1, 2, W, None, None, ,  
02/09/2018 17:32, -1, 70, -8 ,1, 2, W, None, None, ,  
02/09/2018 17:22, 0, 70, -8 ,1, 3, W, None, None, ,  
02/09/2018 17:20, 0, 70, -8 ,2, 4, W, None, None, ,  
02/09/2018 17:12, 0, 69, -8 ,2, 4, W, None, None, ,  
02/09/2018 17:05, 1, 68, -7 ,2, 5, W, None, None, ,  
02/09/2018 17:02, 1, 68, -7 ,2, 6, W, None, None, ,  
02/09/2018 16:52, 1, 68, -7 ,3, 6, W, None, None, ,  
02/09/2018 16:50, 2, 67, -7 ,4, 6, W, None, None, ,  
02/09/2018 16:42, 2, 67, -7 ,4, 6, W, None, None, ,  
02/09/2018 16:35, 2, 66, -7 ,4, 6, W, None, None, ,  
02/09/2018 16:32, 2, 66, -7 ,3, 6, W, None, None, ,  
02/09/2018 16:22, 2, 64, -7 ,4, 7, W, None, None, ,  
02/09/2018 16:20, 2, 64, -7 ,4, 7, W, None, None, ,  
02/09/2018 16:12, 3, 63, -7 ,4, 6, W, None, None, ,  
02/09/2018 16:05, 3, 62, -7 ,1, 3, W, None, None, ,  
02/09/2018 16:02, 3, 62, -7 ,1, 3, W, None, None, ,  
02/09/2018 15:52, 3, 61, -7 ,0, 2, E, None, None, ,  
02/09/2018 15:50, 4, 61, -7 ,0, 3, E, None, None, ,  
02/09/2018 15:42, 4, 61, -6 ,1, 4, NW, None, None, ,  
02/09/2018 15:35, 5, 61, -6 ,0, 2, SW, None, None, ,  
02/09/2018 15:32, 5, 61, -6 ,0, 5, E, None, None, ,  
02/09/2018 15:22, 6, 61, -5 ,1, 4, S, None, None, ,  
02/09/2018 15:20, 5, 61, -5 ,1, 4, SW, None, None, ,  
02/09/2018 15:12, 6, 60, -5 ,2, 6, W, None, None, ,  
02/09/2018 15:05, 6, 59, -5 ,2, 4, W, None, None, ,  
02/09/2018 15:02, 6, 59, -5 ,1, 6, N, None, None, ,  
02/09/2018 14:52, 6, 59, -5 ,3, 5, N, None, None, ,  
02/09/2018 14:50, 6, 59, -5 ,4, 5, N, None, None, ,  
02/09/2018 14:42, 6, 59, -5 ,3, 6, N, None, None, ,  
02/09/2018 14:35, 6, 59, -5 ,4, 6, N, Yes, , ,  
02/09/2018 14:31, 6, 59, -5 ,2, 6, N, None, None, ,  
02/09/2018 14:21, 6, 59, -5 ,3, 6, N, None, None, ,  
02/09/2018 14:20, 6, 59, -5 ,3, 5, N, Yes, , ,  
02/09/2018 14:11, 7, 59, -5 ,4, 6, N, None, None, ,  
02/09/2018 14:05, 7, 59, -4 ,3, 7, N, None, None, ,  
02/09/2018 14:01, 6, 59, -5 ,4, 7, NE, None, None, ,  
02/09/2018 13:51, 8, 59, -4 ,4, 6, N, None, None, ,  
02/09/2018 13:50, 8, 59, -3 ,2, 6, N, None, None, ,  
02/09/2018 13:41, 7, 61, -3 ,0, 6, N, None, None, ,  
02/09/2018 13:35, 6, 61, -5 ,1, 7, N, None, None, ,  
02/09/2018 13:31, 5, 61, -5 ,3, 7, W, None, None, ,  
02/09/2018 13:21, 6, 61, -5 ,4, 6, N, None, None, ,  
02/09/2018 13:20, 6, 61, -5 ,4, 6, N, None, None, ,  
02/09/2018 13:11, 5, 62, -5 ,3, 6, N, None, None, ,  
02/09/2018 13:05, 6, 63, -4 ,2, 6, N, Yes, , ,  
02/09/2018 13:01, 5, 63, -4 ,2, 6, N, None, None, ,  
02/09/2018 12:51, 5, 65, -5 ,3, 7, NW, None, None, ,  
02/09/2018 12:50, 4, 65, -5 ,3, 7, NW, None, None, ,  
02/09/2018 12:41, 4, 65, -5 ,4, 6, N, None, None, ,  
02/09/2018 12:35, 5, 66, -3 ,3, 6, NW, None, None, ,  
02/09/2018 12:31, 5, 67, -3 ,3, 7, N, Yes, , ,  
02/09/2018 12:21, 4, 69, -4 ,4, 8, N, Yes, , ,  
02/09/2018 12:20, 4, 69, -3 ,4, 8, N, Yes, , ,  
02/09/2018 12:11, 5, 70, -3 ,1, 7, N, None, None, ,  
02/09/2018 12:05, 4, 70, -3 ,2, 4, NW, None, None, ,  
02/09/2018 12:01, 5, 70, -3 ,2, 4, NW, Yes, , ,  
02/09/2018 11:51, 6, 73, -1 ,1, 2, NE, None, None, ,  
02/09/2018 11:50, 6, 73, -1 ,1, 2, N, None, None, ,  
02/09/2018 11:41, 3, 73, -4 ,3, 6, NW, None, None, ,  
02/09/2018 11:35, 2, 73, -5 ,4, 6, W, None, None, ,  
02/09/2018 11:31, 3, 74, -3 ,3, 4, NW, Yes, , ,  
02/09/2018 11:21, 4, 77, -1 ,2, 4, NE, None, None, ,  
02/09/2018 11:20, 4, 77, -1 ,2, 4, N, None, None, ,  
02/09/2018 11:10, 6, 81, 2 ,0, 1, E, Yes, , ,  
02/09/2018 11:05, 5, 81, 1 ,0, 1, E, Yes, , ,  
02/09/2018 11:00, 3, 81, -1 ,0, 1, E, Yes, , ,  
02/09/2018 10:50, 1, 81, -4 ,2, 5, E, None, None, ,  
02/09/2018 10:50, 1, 81, -4 ,3, 5, E, None, None, ,  
02/09/2018 10:40, 2, 82, -2 ,2, 3, E, None, None, ,  
02/09/2018 10:35, 1, 82, -3 ,1, 2, E, None, None, ,  
02/09/2018 10:30, 1, 82, -3 ,1, 2, E, None, None, ,  
02/09/2018 10:20, 1, 82, -3 ,1, 2, E, None, None, ,  
02/09/2018 10:20, 1, 82, -3 ,1, 2, E, None, None, ,  
02/09/2018 10:10, 0, 82, -4 ,1, 4, SE, None, None, ,  
02/09/2018 10:05, -1, 82, -5 ,2, 4, SE, None, None, ,  
02/09/2018 10:00, -1, 82, -5 ,2, 4, SE, None, None, ,  
02/09/2018 09:50, -1, 82, -5 ,2, 3, E, Yes, , ,  
02/09/2018 09:50, -1, 82, -5 ,2, 3, E, Yes, , ,  
02/09/2018 09:40, -1, 82, -5 ,2, 2, E, Yes, , ,  
02/09/2018 09:35, -1, 82, -5 ,0, 2, E, Yes, , ,  
02/09/2018 09:30, -1, 82, -5 ,1, 2, E, Yes, , ,  
02/09/2018 09:20, -2, 82, -6 ,0, 1, E, Yes, , ,  
02/09/2018 09:20, -2, 82, -6 ,0, 1, E, Yes, , ,  
02/09/2018 09:10, -2, 82, -6 ,1, 1, E, Yes, , ,  
02/09/2018 09:05, -2, 82, -6 ,0, 0, E, Yes, , ,  
02/09/2018 09:00, -3, 82, -7 ,0, 0, E, Yes, , ,  
02/09/2018 08:50, -3, 82, -7 ,1, 3, E, Yes, , ,  
02/09/2018 08:50, -3, 82, -7 ,1, 3, E, Yes, , ,  
02/09/2018 08:40, -3, 82, -7 ,2, 3, E, Yes, , ,  
02/09/2018 08:35, -3, 82, -7 ,2, 4, E, Yes, , ,  
02/09/2018 08:30, -3, 82, -7 ,2, 6, E, Yes, , ,  
02/09/2018 08:20, -4, 82, -8 ,4, 4, E, Yes, , ,  
02/09/2018 08:20, -4, 82, -8 ,4, 4, E, Yes, , ,  
02/09/2018 08:10, -4, 82, -8 ,2, 3, NE, Yes, , ,  
02/09/2018 08:05, -4, 82, -8 ,2, 4, NE, None, None, ,  
02/09/2018 08:00, -4, 82, -8 ,3, 4, NE, None, None, ,  
02/09/2018 07:50, -5, 82, -9 ,3, 4, NE, None, None, ,  
02/09/2018 07:50, -5, 82, -9 ,3, 4, NE, None, None, ,  
02/09/2018 07:40, -5, 82, -9 ,3, 4, NE, None, None, ,  
02/09/2018 07:35, -5, 82, -9 ,3, 4, E, None, None, ,  
02/09/2018 07:30, -5, 82, -9 ,4, 5, E, Yes, , ,  
02/09/2018 07:20, -5, 82, -9 ,4, 5, E, None, None, ,  
02/09/2018 07:19, -5, 82, -9 ,4, 5, E, None, None, ,  
02/09/2018 07:09, -5, 82, -9 ,2, 4, NE, Yes, , ,  
02/09/2018 07:05, -5, 82, -9 ,3, 6, E, None, None, ,  
02/09/2018 06:59, -5, 82, -9 ,5, 6, E, None, None, ,  
02/09/2018 06:50, -4, 82, -8 ,4, 6, E, None, None, ,  
02/09/2018 06:49, -4, 82, -8 ,4, 6, E, None, None, ,  
02/09/2018 06:39, -4, 82, -8 ,5, 6, NE, None, None, ,  
02/09/2018 06:35, -4, 83, -8 ,6, 6, NE, Yes, , ,  
02/09/2018 06:29, -4, 83, -8 ,4, 6, NE, Yes, , ,  
02/09/2018 06:20, -4, 83, -8 ,4, 4, NE, Yes, , ,  
02/09/2018 06:19, -4, 83, -8 ,4, 4, NE, Yes, , ,  
02/09/2018 06:09, -4, 83, -8 ,3, 4, NE, Yes, , ,  
02/09/2018 06:05, -4, 83, -8 ,2, 2, NE, Yes, , ,  
02/09/2018 05:59, -4, 83, -8 ,0, 1, NE, Yes, , ,  
02/09/2018 05:50, -4, 83, -7 ,1, 4, NE, Yes, , ,  
02/09/2018 05:49, -4, 83, -8 ,2, 4, NE, Yes, , ,  
02/09/2018 05:39, -4, 83, -7 ,3, 4, NE, Yes, , ,  
02/09/2018 05:35, -4, 83, -7 ,4, 4, NE, Yes, , ,  
02/09/2018 05:29, -4, 83, -7 ,3, 4, E, Yes, , ,  
02/09/2018 05:20, -4, 83, -7 ,2, 3, NE, Yes, , ,  
02/09/2018 05:19, -4, 83, -7 ,2, 3, NE, Yes, , ,  
02/09/2018 05:09, -3, 83, -7 ,2, 5, NE, Yes, , ,  
02/09/2018 05:05, -3, 83, -7 ,4, 5, NE, Yes, , ,  
02/09/2018 04:59, -4, 83, -7 ,4, 6, NE, Yes, , ,  
02/09/2018 04:50, -4, 83, -7 ,3, 6, E, Yes, , ,  
02/09/2018 04:49, -3, 83, -7 ,3, 6, E, Yes, , ,  
02/09/2018 04:39, -3, 83, -7 ,4, 7, NE, Yes, , ,  
02/09/2018 04:35, -3, 83, -7 ,4, 7, NE, Yes, , ,  
02/09/2018 04:28, -3, 83, -7 ,5, 7, NE, Yes, , ,  
02/09/2018 04:20, -3, 83, -7 ,4, 7, NE, Yes, , ,  
02/09/2018 04:18, -3, 83, -7 ,6, 7, E, Yes, , ,  
02/09/2018 04:08, -3, 83, -7 ,5, 6, E, Yes, , ,  
02/09/2018 04:05, -3, 83, -7 ,5, 6, E, Yes, , ,  
02/09/2018 03:58, -3, 83, -7 ,5, 6, NE, Yes, , ,  
02/09/2018 03:50, -3, 83, -7 ,4, 7, NE, Yes, , ,  
02/09/2018 03:48, -3, 83, -7 ,4, 9, NE, Yes, , ,  
02/09/2018 03:38, -3, 83, -7 ,7, 9, E, Yes, , ,  
02/09/2018 03:35, -3, 83, -7 ,7, 9, E, Yes, , ,  
02/09/2018 03:28, -3, 83, -7 ,7, 11, E, Yes, , ,  
02/09/2018 03:20, -3, 83, -7 ,9, 11, E, Yes, , ,  
02/09/2018 03:18, -3, 83, -7 ,9, 11, E, Yes, , ,  
02/09/2018 03:08, -3, 83, -7 ,9, 11, E, None, None, ,  
02/09/2018 03:05, -3, 83, -7 ,9, 11, E, None, None, ,  
02/09/2018 02:58, -3, 83, -7 ,9, 11, E, None, None, ,  
02/09/2018 02:50, -4, 83, -7 ,8, 10, E, None, None, ,  
02/09/2018 02:48, -4, 83, -8 ,7, 9, E, None, None, ,  
02/09/2018 02:38, -4, 83, -7 ,7, 9, E, None, None, ,  
02/09/2018 02:35, -4, 83, -7 ,7, 10, E, None, None, ,  
02/09/2018 02:28, -3, 83, -7 ,6, 9, E, None, None, ,  
02/09/2018 02:20, -3, 83, -7 ,6, 9, NE, None, None, ,  
02/09/2018 02:18, -3, 83, -7 ,6, 9, NE, None, None, ,  
02/09/2018 02:08, -4, 83, -8 ,7, 9, E, None, None, ,  
02/09/2018 02:05, -4, 83, -8 ,7, 9, NE, None, None, ,  
02/09/2018 01:58, -4, 83, -8 ,7, 9, E, None, None, ,  
02/09/2018 01:50, -5, 83, -8 ,7, 9, E, None, None, ,  
02/09/2018 01:48, -5, 83, -9 ,7, 9, E, None, None, ,  
02/09/2018 01:38, -3, 83, -7 ,8, 10, E, None, None, ,  
02/09/2018 01:35, -3, 83, -6 ,7, 10, E, None, None, ,  
02/09/2018 01:28, -3, 83, -6 ,7, 9, E, None, None, ,  
02/09/2018 01:20, -2, 83, -6 ,7, 9, NE, None, None, ,  
02/09/2018 01:17, -2, 83, -6 ,7, 9, E, None, None, ,  
02/09/2018 01:07, -2, 83, -6 ,7, 7, E, None, None, ,  
02/09/2018 01:05, -2, 83, -6 ,6, 7, E, None, None, ,  
02/09/2018 00:57, -2, 83, -6 ,6, 8, E, None, None, ,  
02/09/2018 00:50, -2, 84, -5 ,6, 8, NE, None, None, ,  
02/09/2018 00:47, -2, 84, -5 ,5, 9, E, None, None, ,  
02/09/2018 00:37, -2, 84, -5 ,7, 9, NE, None, None, ,  
02/09/2018 00:35, -1, 84, -5 ,6, 7, NE, None, None, ,  
02/09/2018 00:27, -1, 84, -5 ,6, 8, NE, Yes, , ,  
02/09/2018 00:20, -1, 84, -5 ,6, 9, NE, Yes, , ,  
02/09/2018 00:17, -1, 84, -5 ,6, 9, NE, None, None, ,  
02/09/2018 00:07, -1, 84, -5 ,6, 9, NE, None, None, ,  
02/09/2018 00:05, -1, 84, -5 ,6, 9, NE, None, None, ,  
02/08/2018 23:57, 0, 84, -4 ,6, 11, E, None, None, ,  
02/08/2018 23:50, 0, 84, -4 ,7, 11, NE, Yes, , ,  
02/08/2018 23:47, 0, 84, -4 ,6, 11, E, Yes, , ,  
02/08/2018 23:37, 0, 84, -4 ,9, 14, NE, Yes, , ,  
02/08/2018 23:35, 0, 84, -4 ,11, 14, E, None, None, ,  
02/08/2018 23:27, 0, 84, -4 ,9, 12, NE, Yes, , ,  
02/08/2018 23:20, 0, 84, -3 ,9, 12, E, Yes, , ,  
02/08/2018 23:17, 0, 84, -3 ,7, 9, NE, None, None, ,  
02/08/2018 23:07, 0, 84, -3 ,6, 8, E, Yes, , ,  
02/08/2018 23:05, 0, 84, -3 ,6, 9, E, Yes, , ,  
02/08/2018 22:57, 0, 84, -3 ,7, 9, NE, Yes, , ,  
02/08/2018 22:50, 1, 84, -3 ,4, 9, E, Yes, , ,  
02/08/2018 22:47, 0, 84, -3 ,4, 9, NE, Yes, , ,  
02/08/2018 22:37, 1, 84, -3 ,6, 11, NE, Yes, , ,  
02/08/2018 22:35, 1, 84, -3 ,6, 11, NE, Yes, , ,  
02/08/2018 22:27, 0, 84, -3 ,9, 13, NE, Yes, , ,  
02/08/2018 22:20, 1, 84, -3 ,9, 12, NE, Yes, , ,  
02/08/2018 22:17, 1, 84, -3 ,8, 12, NE, Yes, , ,  
02/08/2018 22:06, 1, 84, -3 ,8, 11, NE, Yes, , ,  
02/08/2018 22:05, 1, 84, -3 ,8, 11, NE, None, None, ,  
02/08/2018 21:56, 1, 84, -3 ,4, 6, NE, Yes, , ,  
02/08/2018 21:50, 1, 84, -3 ,4, 6, NE, None, None, ,  
02/08/2018 21:46, 1, 84, -3 ,4, 8, NE, Yes, , ,  
02/08/2018 21:36, 1, 84, -3 ,6, 11, NE, None, None, ,  
02/08/2018 21:35, 1, 84, -3 ,6, 11, NE, Yes, , ,  
02/08/2018 21:26, 1, 84, -3 ,6, 12, NE, None, None, ,  
02/08/2018 21:20, 1, 84, -3 ,6, 11, NE, None, None, ,  
02/08/2018 21:16, 1, 84, -3 ,7, 11, NE, Yes, , ,  
02/08/2018 21:06, 1, 84, -3 ,6, 12, NE, Yes, , ,  
02/08/2018 21:05, 1, 84, -2 ,5, 11, NE, Yes, , ,  
02/08/2018 20:56, 1, 84, -2 ,9, 11, NE, None, None, ,  
02/08/2018 20:50, 1, 84, -2 ,6, 10, NE, Yes, , ,  
02/08/2018 20:46, 1, 84, -2 ,7, 11, NE, Yes, , ,  
02/08/2018 20:36, 1, 84, -2 ,6, 10, NE, Yes, , ,  
02/08/2018 20:35, 1, 84, -2 ,6, 10, NE, None, None, ,  
02/08/2018 20:26, 1, 84, -2 ,6, 12, NE, Yes, , ,  
02/08/2018 20:20, 1, 84, -2 ,7, 12, NE, Yes, , ,  
02/08/2018 20:16, 2, 84, -2 ,8, 12, NE, Yes, , ,  
02/08/2018 20:06, 2, 84, -2 ,6, 11, NE, Yes, , ,  
02/08/2018 20:05, 2, 84, -2 ,6, 11, NE, Yes, , ,  
02/08/2018 19:56, 2, 84, -2 ,6, 10, NE, Yes, , ,  
02/08/2018 19:50, 2, 84, -2 ,3, 5, NE, Yes, , ,  
02/08/2018 19:46, 2, 84, -2 ,3, 5, NE, Yes, , ,  
02/08/2018 19:36, 2, 84, -2 ,3, 9, NE, Yes, , ,  
02/08/2018 19:35, 2, 84, -2 ,3, 9, NE, Yes, , ,  
02/08/2018 19:26, 2, 84, -2 ,7, 15, NE, Yes, , ,  
02/08/2018 19:20, 2, 84, -1 ,4, 10, N, Yes, , ,  
02/08/2018 19:16, 2, 84, -1 ,6, 10, NE, Yes, , ,  
02/08/2018 19:06, 2, 84, -1 ,3, 12, NE, Yes, , ,  
02/08/2018 19:05, 2, 84, -1 ,2, 12, NE, Yes, , ,  
02/08/2018 18:56, 2, 84, -1 ,6, 12, NE, Yes, , ,  
02/08/2018 18:50, 2, 84, -1 ,9, 12, NE, Yes, , ,  
02/08/2018 18:45, 3, 84, -1 ,4, 11, NE, Yes, , ,  
02/08/2018 18:35, 3, 84, -1 ,5, 9, NE, Yes, , ,  
02/08/2018 18:35, 3, 84, -1 ,6, 9, NE, Yes, , ,  
02/08/2018 18:25, 3, 84, -1 ,9, 14, NE, Yes, , ,  
Change End Date:

Copyright © 1998-2015 Vaisala, Inc.
All Rights Reserved
Send comments about the data to:
SCAN Web ® is a registered trademark of Vaisala, Inc.
SCAN Web Version 6.0